createdAt,value
2019-01-30T00:03:25.399Z,5.50
2019-01-30T00:08:29.744Z,5.43
2019-01-30T00:13:34.026Z,4.73
2019-01-30T00:18:38.717Z,5.00
2019-01-30T00:23:42.913Z,6.03
2019-01-30T00:28:47.110Z,5.47
2019-01-30T00:33:51.339Z,5.10
2019-01-30T00:38:56.780Z,5.87
2019-01-30T00:44:00.965Z,5.67
2019-01-30T00:49:05.200Z,5.63
2019-01-30T00:54:09.424Z,6.00
2019-01-30T00:59:13.679Z,5.50
2019-01-30T01:04:18.025Z,5.67
2019-01-30T01:09:22.230Z,5.93
2019-01-30T01:14:29.506Z,5.70
2019-01-30T01:19:33.849Z,6.43
2019-01-30T01:24:38.080Z,6.23
2019-01-30T01:29:42.302Z,5.53
2019-01-30T01:34:46.507Z,5.80
2019-01-30T01:39:51.122Z,6.13
2019-01-30T01:44:55.522Z,6.03
2019-01-30T01:49:59.712Z,5.40
2019-01-30T01:55:04.857Z,5.47
2019-01-30T02:00:12.447Z,4.43
2019-01-30T02:05:18.625Z,5.37
2019-01-30T02:10:24.654Z,4.93
2019-01-30T02:15:28.842Z,5.43
2019-01-30T02:20:33.862Z,4.80
2019-01-30T02:25:38.152Z,5.20
2019-01-30T02:30:47.673Z,5.57
2019-01-30T02:35:48.290Z,5.63
2019-01-30T02:40:54.842Z,6.50
2019-01-30T02:45:59.057Z,6.17
2019-01-30T02:51:03.319Z,6.13
2019-01-30T02:56:07.599Z,6.57
2019-01-30T03:01:11.916Z,6.33
2019-01-30T03:06:16.085Z,7.10
2019-01-30T03:11:20.269Z,7.30
2019-01-30T03:16:24.452Z,7.53
2019-01-30T03:21:28.719Z,7.07
2019-01-30T03:26:32.896Z,7.20
2019-01-30T03:31:37.116Z,8.03
2019-01-30T03:36:41.432Z,7.27
2019-01-30T03:41:45.807Z,7.60
2019-01-30T03:46:50.140Z,7.80
2019-01-30T03:51:54.323Z,8.37
2019-01-30T03:56:58.535Z,8.83
2019-01-30T04:02:02.731Z,9.00
2019-01-30T04:07:06.916Z,8.43
2019-01-30T04:12:11.167Z,7.90
2019-01-30T04:17:15.376Z,8.87
2019-01-30T04:22:19.583Z,8.27
2019-01-30T04:27:23.816Z,8.13
2019-01-30T04:32:28.008Z,8.03
2019-01-30T04:37:32.216Z,8.27
2019-01-30T04:42:36.419Z,8.47
2019-01-30T04:47:40.647Z,7.63
2019-01-30T04:52:44.929Z,7.83
2019-01-30T04:57:49.129Z,8.53
2019-01-30T05:02:53.690Z,10.50
2019-01-30T05:07:57.908Z,10.07
2019-01-30T05:13:02.214Z,9.83
2019-01-30T05:18:06.568Z,9.70
2019-01-30T05:23:10.799Z,11.20
2019-01-30T05:28:15.123Z,10.87
2019-01-30T05:33:19.400Z,11.40
2019-01-30T05:38:23.626Z,11.07
2019-01-30T05:43:27.840Z,11.13
2019-01-30T05:48:32.041Z,11.87
2019-01-30T05:53:36.248Z,12.43
2019-01-30T05:58:40.447Z,12.43
2019-01-30T06:03:47.692Z,12.43
2019-01-30T06:08:51.927Z,12.40
2019-01-30T06:13:56.133Z,11.77
2019-01-30T06:19:00.335Z,13.57
2019-01-30T06:24:04.634Z,12.70
2019-01-30T06:29:08.828Z,13.53
2019-01-30T06:34:13.036Z,13.37
2019-01-30T06:39:17.250Z,13.13
2019-01-30T06:44:21.512Z,16.17
2019-01-30T06:49:25.708Z,14.70
2019-01-30T06:54:29.999Z,13.57
2019-01-30T06:59:34.227Z,14.17
2019-01-30T07:04:38.464Z,14.07
2019-01-30T07:09:42.667Z,14.30
2019-01-30T07:14:46.871Z,13.57
2019-01-30T07:19:51.087Z,13.77
2019-01-30T07:24:55.316Z,14.23
2019-01-30T07:29:59.487Z,14.20
2019-01-30T07:35:03.879Z,14.87
2019-01-30T07:40:09.417Z,12.80
2019-01-30T07:45:15.177Z,14.70
2019-01-30T07:50:19.539Z,13.90
2019-01-30T07:55:23.735Z,14.30
2019-01-30T08:00:30.298Z,14.73
2019-01-30T08:05:34.560Z,14.40
2019-01-30T08:10:38.763Z,14.57
2019-01-30T08:15:42.958Z,13.90
2019-01-30T08:20:47.204Z,14.20
2019-01-30T08:25:51.747Z,13.27
2019-01-30T08:30:56.268Z,12.50
2019-01-30T08:36:00.570Z,13.27
2019-01-30T08:41:04.922Z,13.07
2019-01-30T08:46:09.175Z,11.50
2019-01-30T08:51:13.491Z,11.97
2019-01-30T08:56:17.779Z,11.20
2019-01-30T09:01:21.997Z,10.97
2019-01-30T09:06:26.219Z,10.77
2019-01-30T09:11:30.471Z,11.10
2019-01-30T09:16:34.669Z,11.40
2019-01-30T09:21:38.884Z,10.20
2019-01-30T09:26:43.374Z,11.53
2019-01-30T09:31:47.647Z,10.53
2019-01-30T09:36:51.986Z,10.93
2019-01-30T09:41:56.247Z,10.13
2019-01-30T09:47:00.503Z,9.80
2019-01-30T09:52:04.850Z,9.90
2019-01-30T10:03:36.672Z,10.37
2019-01-30T10:08:41.135Z,9.10
2019-01-30T10:13:45.483Z,9.63
2019-01-30T10:25:41.671Z,9.90
2019-01-30T10:30:47.774Z,9.90
2019-01-30T10:40:07.285Z,9.30
2019-01-30T10:45:13.978Z,9.83
2019-01-30T10:50:20.551Z,9.77
2019-01-30T10:55:26.711Z,9.57
2019-01-30T11:00:36.727Z,9.17
2019-01-30T11:05:40.939Z,9.47
2019-01-30T11:10:45.642Z,9.03
2019-01-30T11:15:50.264Z,9.97
2019-01-30T11:20:54.526Z,9.43
2019-01-30T11:25:58.751Z,8.83
2019-01-30T11:31:03.014Z,8.33
2019-01-30T11:36:07.411Z,8.50
2019-01-30T11:41:11.647Z,9.00
2019-01-30T11:46:15.982Z,9.37
2019-01-30T11:51:20.326Z,9.33
2019-01-30T11:56:24.559Z,9.30
2019-01-30T12:01:29.146Z,9.67
2019-01-30T12:06:33.440Z,8.83
2019-01-30T12:11:37.666Z,9.23
2019-01-30T12:16:41.970Z,9.73
2019-01-30T12:21:46.368Z,9.97
2019-01-30T12:26:50.608Z,9.83
2019-01-30T12:31:54.897Z,9.37
2019-01-30T12:36:59.120Z,8.93
2019-01-30T12:42:03.365Z,9.37
2019-01-30T12:47:07.687Z,9.23
2019-01-30T12:52:11.976Z,9.57
2019-01-30T12:57:16.155Z,9.13
2019-01-30T13:02:20.465Z,8.97
2019-01-30T13:07:24.723Z,8.60
2019-01-30T13:12:28.923Z,8.60
2019-01-30T13:17:33.307Z,8.90
2019-01-30T13:22:37.551Z,8.30
2019-01-30T13:27:41.756Z,8.40
2019-01-30T13:32:46.137Z,8.77
2019-01-30T13:37:50.354Z,7.77
2019-01-30T13:42:54.637Z,8.60
2019-01-30T13:47:59.005Z,8.90
2019-01-30T13:53:03.402Z,9.53
2019-01-30T13:58:07.702Z,8.57
2019-01-30T14:03:12.027Z,7.83
2019-01-30T14:08:16.630Z,8.97
2019-01-30T14:13:20.870Z,8.40
2019-01-30T14:18:25.185Z,8.37
2019-01-30T14:23:29.571Z,8.33
2019-01-30T14:28:33.764Z,8.07
2019-01-30T14:33:37.978Z,8.93
2019-01-30T14:38:42.280Z,8.20
2019-01-30T14:43:46.870Z,8.80
2019-01-30T14:48:51.125Z,9.30
2019-01-30T14:53:55.481Z,8.80
2019-01-30T14:58:59.753Z,8.43
2019-01-30T15:04:04.022Z,8.07
2019-01-30T15:09:09.916Z,9.00
2019-01-30T15:14:14.123Z,8.23
2019-01-30T15:19:18.399Z,8.17
2019-01-30T15:24:22.743Z,8.83
2019-01-30T15:29:27.023Z,8.80
2019-01-30T15:34:31.640Z,9.47
2019-01-30T15:39:35.876Z,8.90
2019-01-30T15:44:40.108Z,8.33
2019-01-30T15:49:44.664Z,8.40
2019-01-30T15:54:48.953Z,8.70
2019-01-30T15:59:53.169Z,11.13
2019-01-30T16:04:58.881Z,8.87
2019-01-30T16:10:03.089Z,8.83
2019-01-30T16:15:10.316Z,8.67
2019-01-30T16:20:14.768Z,8.93
2019-01-30T16:25:19.191Z,9.63
2019-01-30T16:30:24.060Z,9.67
2019-01-30T16:35:30.052Z,9.63
2019-01-30T16:40:34.320Z,9.27
2019-01-30T16:45:38.981Z,9.50
2019-01-30T16:50:43.301Z,9.63
2019-01-30T16:55:47.680Z,8.97
2019-01-30T17:00:52.224Z,8.90
2019-01-30T17:06:06.726Z,8.23
2019-01-30T17:11:02.489Z,9.43
2019-01-30T17:22:10.964Z,8.60
2019-01-30T17:27:15.192Z,10.90
2019-01-30T17:32:19.438Z,9.60
2019-01-30T17:37:23.757Z,9.57
2019-01-30T17:42:28.176Z,9.50
2019-01-30T17:47:32.455Z,9.27
2019-01-30T17:52:36.691Z,9.53
2019-01-30T17:57:40.910Z,9.40
2019-01-30T18:02:45.495Z,10.40
2019-01-30T18:07:49.789Z,9.53
2019-01-30T18:12:53.998Z,8.97
2019-01-30T18:17:58.249Z,10.20
2019-01-30T18:23:02.909Z,9.70
2019-01-30T18:28:07.623Z,10.77
2019-01-30T18:33:11.913Z,10.70
2019-01-30T18:38:16.249Z,10.23
2019-01-30T18:43:20.673Z,12.30
2019-01-30T18:48:24.960Z,10.73
2019-01-30T18:53:29.182Z,10.57
2019-01-30T18:58:33.426Z,10.50
2019-01-30T19:03:38.620Z,10.50
2019-01-30T19:08:43.141Z,10.50
2019-01-30T19:13:48.913Z,10.83
2019-01-30T19:18:53.200Z,12.77
2019-01-30T19:24:00.133Z,26.53
2019-01-30T19:29:04.467Z,12.03
2019-01-30T19:34:08.800Z,10.50
2019-01-30T19:39:13.124Z,10.50
2019-01-30T19:44:17.368Z,11.07
2019-01-30T19:49:21.668Z,10.90
2019-01-30T19:54:25.999Z,9.90
2019-01-30T19:59:30.243Z,11.30
2019-01-30T20:04:34.569Z,11.00
2019-01-30T20:09:38.866Z,11.40
2019-01-30T20:14:43.122Z,10.60
2019-01-30T20:19:47.368Z,12.53
2019-01-30T20:24:51.602Z,11.87
2019-01-30T20:29:55.928Z,10.57
2019-01-30T20:35:00.235Z,10.87
2019-01-30T20:40:05.600Z,11.70
2019-01-30T20:45:11.169Z,11.87
2019-01-30T20:50:17.941Z,11.33
2019-01-30T20:55:22.254Z,14.30
2019-01-30T21:00:31.627Z,12.30
2019-01-30T21:05:36.017Z,12.30
2019-01-30T21:10:42.122Z,11.83
2019-01-30T21:15:46.863Z,11.57
2019-01-30T21:20:51.157Z,13.40
2019-01-30T21:25:55.560Z,12.53
2019-01-30T21:30:59.930Z,12.37
2019-01-30T21:36:04.207Z,12.70
2019-01-30T21:41:08.537Z,12.27
2019-01-30T21:46:12.737Z,12.60
2019-01-30T21:51:16.971Z,11.43
2019-01-30T21:56:21.195Z,12.07
2019-01-30T22:01:25.694Z,10.87
2019-01-30T22:06:31.015Z,12.63
2019-01-30T22:11:35.415Z,12.13
2019-01-30T22:16:39.655Z,11.50
2019-01-30T22:21:43.920Z,12.83
2019-01-30T22:26:48.226Z,12.27
2019-01-30T22:31:52.573Z,12.97
2019-01-30T22:36:56.787Z,13.07
2019-01-30T22:42:02.482Z,12.33
2019-01-30T22:47:06.942Z,12.77
2019-01-30T22:52:11.526Z,12.33
2019-01-30T22:57:15.752Z,13.67
2019-01-30T23:02:20.778Z,13.57
2019-01-30T23:07:48.648Z,13.40
2019-01-30T23:13:32.900Z,13.50
2019-01-30T23:18:58.322Z,12.80
2019-01-30T23:24:28.351Z,13.30
2019-01-30T23:30:16.604Z,13.57
2019-01-30T23:35:46.774Z,14.60
2019-01-30T23:41:37.021Z,14.23
2019-01-30T23:47:02.420Z,14.07
2019-01-30T23:52:38.055Z,12.83
2019-01-30T23:58:23.627Z,11.70
